createdAt,value
2018-08-22T00:01:59.184Z,102079.00
2018-08-22T00:04:29.207Z,102083.00
2018-08-22T00:06:59.339Z,102073.00
2018-08-22T00:09:29.193Z,102079.00
2018-08-22T00:11:59.219Z,102076.00
2018-08-22T00:14:29.232Z,102074.00
2018-08-22T00:16:59.245Z,102072.00
2018-08-22T00:19:29.125Z,102072.00
2018-08-22T00:21:59.280Z,102070.00
2018-08-22T00:24:29.324Z,102062.00
2018-08-22T00:26:59.140Z,102064.00
2018-08-22T00:29:29.219Z,102061.00
2018-08-22T00:31:59.273Z,102064.00
2018-08-22T00:34:29.256Z,102064.00
2018-08-22T00:36:59.294Z,102059.00
2018-08-22T00:39:29.356Z,102061.00
2018-08-22T00:41:59.232Z,102062.00
2018-08-22T00:44:29.271Z,102059.00
2018-08-22T00:46:59.339Z,102056.00
2018-08-22T00:49:29.288Z,102059.00
2018-08-22T00:51:59.319Z,102055.00
2018-08-22T00:54:29.412Z,102058.00
2018-08-22T00:56:59.347Z,102053.00
2018-08-22T00:59:29.302Z,102047.00
2018-08-22T01:01:59.355Z,102048.00
2018-08-22T01:04:29.301Z,102051.00
2018-08-22T01:06:59.340Z,102047.00
2018-08-22T01:09:29.309Z,102050.00
2018-08-22T01:11:59.507Z,102045.00
2018-08-22T01:14:29.392Z,102047.00
2018-08-22T01:16:59.639Z,102048.00
2018-08-22T01:19:29.709Z,102047.00
2018-08-22T01:21:59.554Z,102044.00
2018-08-22T01:24:29.374Z,102040.00
2018-08-22T01:26:59.391Z,102043.00
2018-08-22T01:29:29.443Z,102038.00
2018-08-22T01:31:59.456Z,102040.00
2018-08-22T01:34:29.446Z,102036.00
2018-08-22T01:36:59.378Z,102032.00
2018-08-22T01:39:29.380Z,102029.00
2018-08-22T01:41:59.408Z,102027.00
2018-08-22T01:44:29.466Z,102030.00
2018-08-22T01:46:59.485Z,102029.00
2018-08-22T01:49:29.474Z,102029.00
2018-08-22T01:51:59.450Z,102031.00
2018-08-22T01:54:29.484Z,102023.00
2018-08-22T01:56:59.433Z,102025.00
2018-08-22T01:59:29.385Z,102025.00
2018-08-22T02:01:59.496Z,102022.00
2018-08-22T02:04:29.504Z,102016.00
2018-08-22T02:06:59.614Z,102017.00
2018-08-22T02:09:29.422Z,102012.00
2018-08-22T02:11:59.485Z,102012.00
2018-08-22T02:14:29.538Z,102008.00
2018-08-22T02:16:59.526Z,102012.00
2018-08-22T02:19:29.510Z,102004.00
2018-08-22T02:21:59.596Z,102005.00
2018-08-22T02:24:29.564Z,102001.00
2018-08-22T02:26:59.629Z,102006.00
2018-08-22T02:29:29.534Z,102002.00
2018-08-22T02:31:59.522Z,101995.00
2018-08-22T02:34:30.020Z,102000.00
2018-08-22T02:36:59.629Z,101997.00
2018-08-22T02:39:29.573Z,101998.00
2018-08-22T02:41:59.538Z,101992.00
2018-08-22T02:44:29.577Z,101995.00
2018-08-22T02:46:59.576Z,101991.00
2018-08-22T02:49:29.551Z,101989.00
2018-08-22T02:51:59.562Z,101985.00
2018-08-22T02:54:36.223Z,101987.00
2018-08-22T02:57:05.682Z,101985.00
2018-08-22T02:59:34.991Z,101988.00
2018-08-22T03:02:04.379Z,101989.00
2018-08-22T03:04:33.750Z,101987.00
2018-08-22T03:07:03.076Z,101981.00
2018-08-22T03:09:32.424Z,101980.00
2018-08-22T03:12:01.733Z,101978.00
2018-08-22T03:14:31.029Z,101971.00
2018-08-22T03:17:00.358Z,101973.00
2018-08-22T03:19:29.743Z,101968.00
2018-08-22T03:21:59.638Z,101968.00
2018-08-22T03:24:29.653Z,101967.00
2018-08-22T03:26:59.653Z,101966.00
2018-08-22T03:29:29.774Z,101966.00
2018-08-22T03:31:59.710Z,101965.00
2018-08-22T03:34:29.671Z,101965.00
2018-08-22T03:36:59.674Z,101961.00
2018-08-22T03:39:29.718Z,101960.00
2018-08-22T03:41:59.777Z,101958.00
2018-08-22T03:44:29.643Z,101957.00
2018-08-22T03:46:59.916Z,101962.00
2018-08-22T03:49:29.774Z,101956.00
2018-08-22T03:51:59.719Z,101951.00
2018-08-22T03:54:29.743Z,101954.00
2018-08-22T03:56:59.711Z,101954.00
2018-08-22T03:59:29.783Z,101958.00
2018-08-22T04:01:59.796Z,101950.00
2018-08-22T04:04:29.656Z,101950.00
2018-08-22T04:06:59.974Z,101948.00
2018-08-22T04:09:29.754Z,101943.00
2018-08-22T04:11:59.753Z,101945.00
2018-08-22T04:14:29.838Z,101941.00
2018-08-22T04:16:59.830Z,101941.00
2018-08-22T04:19:29.779Z,101941.00
2018-08-22T04:21:59.822Z,101945.00
2018-08-22T04:24:29.953Z,101945.00
2018-08-22T04:27:00.392Z,101944.00
2018-08-22T04:29:29.762Z,101939.00
2018-08-22T04:31:59.816Z,101952.00
2018-08-22T04:34:29.838Z,101950.00
2018-08-22T04:36:59.925Z,101957.00
2018-08-22T04:39:29.750Z,101954.00
2018-08-22T04:41:59.798Z,101953.00
2018-08-22T04:44:29.820Z,101948.00
2018-08-22T04:46:59.858Z,101952.00
2018-08-22T04:49:29.830Z,101954.00
2018-08-22T04:51:59.156Z,101956.00
2018-08-22T04:54:28.461Z,101952.00
2018-08-22T04:56:57.819Z,101953.00
2018-08-22T04:59:27.164Z,101957.00
2018-08-22T05:01:56.550Z,101954.00
2018-08-22T05:04:25.911Z,101958.00
2018-08-22T05:06:55.166Z,101956.00
2018-08-22T05:09:24.470Z,101958.00
2018-08-22T05:11:53.782Z,101954.00
2018-08-22T05:14:23.231Z,101953.00
2018-08-22T05:16:52.537Z,101948.00
2018-08-22T05:19:21.853Z,101952.00
2018-08-22T05:21:51.141Z,101943.00
2018-08-22T05:24:20.435Z,101946.00
2018-08-22T05:26:49.759Z,101938.00
2018-08-22T05:29:19.065Z,101941.00
2018-08-22T05:31:48.381Z,101938.00
2018-08-22T05:34:17.725Z,101939.00
2018-08-22T05:36:47.019Z,101938.00
2018-08-22T05:39:16.344Z,101941.00
2018-08-22T05:41:45.647Z,101946.00
2018-08-22T05:44:14.971Z,101943.00
2018-08-22T05:46:44.328Z,101949.00
2018-08-22T05:49:13.707Z,101944.00
2018-08-22T05:51:43.074Z,101945.00
2018-08-22T05:54:12.445Z,101941.00
2018-08-22T05:56:41.785Z,101940.00
2018-08-22T05:59:11.122Z,101938.00
2018-08-22T06:01:40.464Z,101941.00
2018-08-22T06:04:09.813Z,101934.00
2018-08-22T06:06:39.160Z,101930.00
2018-08-22T06:09:12.665Z,101931.00
2018-08-22T06:11:43.503Z,101924.00
2018-08-22T06:14:13.229Z,101929.00
2018-08-22T06:16:42.583Z,101927.00
2018-08-22T06:19:11.913Z,101925.00
2018-08-22T06:21:41.257Z,101924.00
2018-08-22T06:24:10.599Z,101926.00
2018-08-22T06:26:39.922Z,101930.00
2018-08-22T06:29:09.235Z,101926.00
2018-08-22T06:31:38.582Z,101925.00
2018-08-22T06:34:07.945Z,101927.00
2018-08-22T06:36:37.313Z,101926.00
2018-08-22T06:39:09.858Z,101928.00
2018-08-22T06:41:39.517Z,101929.00
2018-08-22T06:44:09.327Z,101925.00
2018-08-22T06:46:38.630Z,101920.00
2018-08-22T06:49:07.949Z,101917.00
2018-08-22T06:51:37.262Z,101916.00
2018-08-22T06:54:06.945Z,101917.00
2018-08-22T06:56:36.286Z,101918.00
2018-08-22T06:59:05.655Z,101913.00
2018-08-22T07:01:35.149Z,101907.00
2018-08-22T07:04:04.541Z,101911.00
2018-08-22T07:06:33.944Z,101909.00
2018-08-22T07:09:11.184Z,101914.00
2018-08-22T07:14:40.694Z,101910.00
2018-08-22T07:17:10.056Z,101908.00
2018-08-22T07:19:39.622Z,101910.00
2018-08-22T07:22:08.910Z,101909.00
2018-08-22T07:24:38.244Z,101909.00
2018-08-22T07:27:07.695Z,101910.00
2018-08-22T07:29:37.041Z,101909.00
2018-08-22T07:32:06.379Z,101909.00
2018-08-22T07:34:35.738Z,101904.00
2018-08-22T07:37:05.193Z,101899.00
2018-08-22T07:39:34.490Z,101905.00
2018-08-22T07:42:03.815Z,101908.00
2018-08-22T07:44:33.093Z,101902.00
2018-08-22T07:47:02.498Z,101900.00
2018-08-22T07:49:32.170Z,101907.00
2018-08-22T07:52:01.728Z,101899.00
2018-08-22T07:54:35.214Z,101905.00
2018-08-22T07:57:04.550Z,101893.00
2018-08-22T07:59:33.919Z,101896.00
2018-08-22T08:02:03.435Z,101894.00
2018-08-22T08:04:32.764Z,101890.00
2018-08-22T08:07:02.125Z,101886.00
2018-08-22T08:09:31.477Z,101886.00
2018-08-22T08:12:00.886Z,101882.00
2018-08-22T08:14:30.456Z,101873.00
2018-08-22T08:17:00.477Z,101872.00
2018-08-22T08:19:30.280Z,101869.00
2018-08-22T08:22:00.345Z,101868.00
2018-08-22T08:24:30.455Z,101867.00
2018-08-22T08:27:00.375Z,101862.00
2018-08-22T08:29:30.411Z,101863.00
2018-08-22T08:32:00.476Z,101861.00
2018-08-22T08:34:30.389Z,101861.00
2018-08-22T08:37:00.464Z,101853.00
2018-08-22T08:39:30.461Z,101849.00
2018-08-22T08:42:00.466Z,101847.00
2018-08-22T08:44:30.621Z,101844.00
2018-08-22T08:47:00.526Z,101835.00
2018-08-22T08:49:30.562Z,101830.00
2018-08-22T08:52:01.828Z,101830.00
2018-08-22T08:54:31.704Z,101833.00
2018-08-22T08:57:01.175Z,101829.00
2018-08-22T08:59:30.539Z,101825.00
2018-08-22T09:02:00.542Z,101818.00
2018-08-22T09:04:30.510Z,101814.00
2018-08-22T09:07:00.472Z,101810.00
2018-08-22T09:09:30.401Z,101811.00
2018-08-22T09:12:01.358Z,101808.00
2018-08-22T09:14:30.782Z,101809.00
2018-08-22T09:17:00.674Z,101808.00
2018-08-22T09:19:30.552Z,101807.00
2018-08-22T09:22:00.562Z,101805.00
2018-08-22T09:24:30.680Z,101792.00
2018-08-22T09:27:00.589Z,101795.00
2018-08-22T09:29:30.521Z,101788.00
2018-08-22T09:32:00.539Z,101787.00
2018-08-22T09:34:30.642Z,101777.00
2018-08-22T09:37:00.583Z,101781.00
2018-08-22T09:39:30.674Z,101774.00
2018-08-22T09:42:00.599Z,101778.00
2018-08-22T09:44:30.531Z,101781.00
2018-08-22T09:47:00.559Z,101778.00
2018-08-22T09:49:30.641Z,101781.00
2018-08-22T09:52:00.639Z,101775.00
2018-08-22T09:54:30.761Z,101767.00
2018-08-22T09:57:00.570Z,101764.00
2018-08-22T09:59:30.614Z,101762.00
2018-08-22T10:02:00.580Z,101763.00
2018-08-22T10:04:30.580Z,101758.00
2018-08-22T10:07:00.633Z,101753.00
2018-08-22T10:09:30.572Z,101752.00
2018-08-22T10:12:00.743Z,101744.00
2018-08-22T10:14:30.691Z,101738.00
2018-08-22T10:17:00.680Z,101737.00
2018-08-22T10:19:30.696Z,101732.00
2018-08-22T10:22:00.657Z,101738.00
2018-08-22T10:24:30.668Z,101726.00
2018-08-22T10:27:00.763Z,101720.00
2018-08-22T10:29:30.571Z,101710.00
2018-08-22T10:32:00.692Z,101713.00
2018-08-22T10:34:30.607Z,101713.00
2018-08-22T10:37:00.686Z,101714.00
2018-08-22T10:39:30.692Z,101718.00
2018-08-22T10:42:00.679Z,101716.00
2018-08-22T10:44:30.705Z,101709.00
2018-08-22T10:47:01.119Z,101715.00
2018-08-22T10:49:30.704Z,101709.00
2018-08-22T10:52:00.642Z,101707.00
2018-08-22T10:54:30.765Z,101709.00
2018-08-22T10:57:00.776Z,101700.00
2018-08-22T10:59:30.678Z,101703.00
2018-08-22T11:02:00.837Z,101697.00
2018-08-22T11:04:30.708Z,101693.00
2018-08-22T11:07:00.751Z,101691.00
2018-08-22T11:09:31.606Z,101682.00
2018-08-22T11:12:00.911Z,101678.00
2018-08-22T11:14:30.721Z,101680.00
2018-08-22T11:17:00.996Z,101671.00
2018-08-22T11:19:30.736Z,101677.00
2018-08-22T11:22:17.807Z,101673.00
2018-08-22T11:25:04.228Z,101671.00
2018-08-22T11:27:50.379Z,101666.00
2018-08-22T11:30:36.683Z,101662.00
2018-08-22T11:33:22.885Z,101668.00
2018-08-22T11:35:50.968Z,101663.00
2018-08-22T11:38:20.314Z,101659.00
2018-08-22T11:40:49.618Z,101650.00
2018-08-22T11:43:18.986Z,101654.00
2018-08-22T11:45:48.329Z,101649.00
2018-08-22T11:48:17.702Z,101642.00
2018-08-22T11:50:47.017Z,101653.00
2018-08-22T11:53:16.382Z,101654.00
2018-08-22T11:55:45.716Z,101650.00
2018-08-22T11:58:15.020Z,101654.00
2018-08-22T12:00:44.837Z,101649.00
2018-08-22T12:03:14.260Z,101650.00
2018-08-22T12:05:43.609Z,101648.00
2018-08-22T12:08:12.902Z,101652.00
2018-08-22T12:10:42.305Z,101657.00
2018-08-22T12:13:11.706Z,101647.00
2018-08-22T12:15:41.035Z,101641.00
2018-08-22T12:18:10.404Z,101640.00
2018-08-22T12:20:39.800Z,101637.00
2018-08-22T12:23:09.149Z,101636.00
2018-08-22T12:25:38.496Z,101638.00
2018-08-22T12:28:07.876Z,101630.00
2018-08-22T12:30:37.207Z,101629.00
2018-08-22T12:33:06.576Z,101624.00
2018-08-22T12:35:35.956Z,101623.00
2018-08-22T12:38:05.262Z,101619.00
2018-08-22T12:40:34.613Z,101608.00
2018-08-22T12:43:04.274Z,101612.00
2018-08-22T12:45:33.603Z,101606.00
2018-08-22T12:48:02.930Z,101604.00
2018-08-22T12:50:32.262Z,101598.00
2018-08-22T12:53:01.657Z,101596.00
2018-08-22T12:55:31.010Z,101596.00
2018-08-22T12:58:00.970Z,101602.00
2018-08-22T13:00:31.163Z,101600.00
2018-08-22T13:03:01.420Z,101589.00
2018-08-22T13:05:31.005Z,101591.00
2018-08-22T13:08:01.061Z,101586.00
2018-08-22T13:10:30.921Z,101588.00
2018-08-22T13:13:01.074Z,101581.00
2018-08-22T13:15:31.129Z,101584.00
2018-08-22T13:18:01.065Z,101590.00
2018-08-22T13:20:31.041Z,101580.00
2018-08-22T13:23:01.051Z,101580.00
2018-08-22T13:25:31.071Z,101580.00
2018-08-22T13:28:01.032Z,101581.00
2018-08-22T13:30:31.224Z,101575.00
2018-08-22T13:33:01.128Z,101573.00
2018-08-22T13:35:31.135Z,101567.00
2018-08-22T13:38:01.123Z,101561.00
2018-08-22T13:40:31.114Z,101559.00
2018-08-22T13:43:01.059Z,101563.00
2018-08-22T13:45:31.263Z,101557.00
2018-08-22T13:48:02.222Z,101558.00
2018-08-22T13:50:31.505Z,101552.00
2018-08-22T13:53:01.158Z,101555.00
2018-08-22T13:55:31.123Z,101555.00
2018-08-22T13:58:01.257Z,101552.00
2018-08-22T14:00:31.131Z,101550.00
2018-08-22T14:03:01.489Z,101540.00
2018-08-22T14:05:31.166Z,101548.00
2018-08-22T14:08:01.135Z,101543.00
2018-08-22T14:10:31.217Z,101538.00
2018-08-22T14:13:01.185Z,101539.00
2018-08-22T14:15:31.236Z,101539.00
2018-08-22T14:18:01.121Z,101541.00
2018-08-22T14:20:31.599Z,101541.00
2018-08-22T14:23:01.193Z,101543.00
2018-08-22T14:25:31.191Z,101537.00
2018-08-22T14:28:01.170Z,101539.00
2018-08-22T14:30:31.559Z,101534.00
2018-08-22T14:33:01.188Z,101533.00
2018-08-22T14:35:31.245Z,101532.00
2018-08-22T14:38:01.349Z,101531.00
2018-08-22T14:40:31.420Z,101524.00
2018-08-22T14:43:01.363Z,101526.00
2018-08-22T14:45:31.221Z,101526.00
2018-08-22T14:48:01.223Z,101524.00
2018-08-22T14:50:31.290Z,101530.00
2018-08-22T14:53:01.468Z,101528.00
2018-08-22T14:55:31.243Z,101529.00
2018-08-22T14:58:01.375Z,101520.00
2018-08-22T15:00:31.327Z,101521.00
2018-08-22T15:03:01.490Z,101514.00
2018-08-22T15:05:31.500Z,101516.00
2018-08-22T15:08:01.451Z,101511.00
2018-08-22T15:10:31.256Z,101511.00
2018-08-22T15:13:01.439Z,101510.00
2018-08-22T15:15:31.586Z,101504.00
2018-08-22T15:18:01.729Z,101502.00
2018-08-22T15:20:31.324Z,101499.00
2018-08-22T15:23:01.347Z,101497.00
2018-08-22T15:25:31.430Z,101492.00
2018-08-22T15:28:01.737Z,101492.00
2018-08-22T15:30:31.429Z,101493.00
2018-08-22T15:33:01.409Z,101490.00
2018-08-22T15:35:31.383Z,101489.00
2018-08-22T15:38:01.373Z,101491.00
2018-08-22T15:40:32.669Z,101489.00
2018-08-22T15:43:02.032Z,101484.00
2018-08-22T15:45:31.434Z,101486.00
2018-08-22T15:48:01.360Z,101482.00
2018-08-22T15:50:31.347Z,101477.00
2018-08-22T15:53:01.423Z,101476.00
2018-08-22T15:55:31.393Z,101478.00
2018-08-22T15:58:05.527Z,101472.00
2018-08-22T16:00:47.096Z,101472.00
2018-08-22T16:03:16.438Z,101475.00
2018-08-22T16:05:46.638Z,101473.00
2018-08-22T16:08:19.217Z,101471.00
2018-08-22T16:10:48.462Z,101465.00
2018-08-22T16:13:23.123Z,101462.00
2018-08-22T16:15:53.662Z,101453.00
2018-08-22T16:18:23.069Z,101449.00
2018-08-22T16:20:58.267Z,101451.00
2018-08-22T16:23:30.338Z,101452.00
2018-08-22T16:26:00.914Z,101445.00
2018-08-22T16:28:50.694Z,101443.00
2018-08-22T16:31:20.510Z,101441.00
2018-08-22T16:33:49.892Z,101441.00
2018-08-22T16:36:24.440Z,101445.00
2018-08-22T16:38:53.840Z,101444.00
2018-08-22T16:41:23.185Z,101441.00
2018-08-22T16:43:52.489Z,101436.00
2018-08-22T16:46:21.815Z,101438.00
2018-08-22T16:48:52.879Z,101437.00
2018-08-22T16:51:23.688Z,101436.00
2018-08-22T16:54:01.909Z,101435.00
2018-08-22T16:56:33.113Z,101439.00
2018-08-22T16:59:07.693Z,101433.00
2018-08-22T17:01:39.350Z,101434.00
2018-08-22T17:04:08.669Z,101432.00
2018-08-22T17:06:37.985Z,101433.00
2018-08-22T17:09:09.507Z,101431.00
2018-08-22T17:11:38.828Z,101432.00
2018-08-22T17:14:08.218Z,101428.00
2018-08-22T17:16:37.532Z,101430.00
2018-08-22T17:19:06.944Z,101427.00
2018-08-22T17:21:36.306Z,101435.00
2018-08-22T17:24:05.831Z,101434.00
2018-08-22T17:26:35.187Z,101432.00
2018-08-22T17:29:04.623Z,101431.00
2018-08-22T17:31:34.395Z,101425.00
2018-08-22T17:34:04.133Z,101426.00
2018-08-22T17:36:33.650Z,101427.00
2018-08-22T17:39:03.182Z,101429.00
2018-08-22T17:41:32.511Z,101430.00
2018-08-22T17:44:14.154Z,101430.00
2018-08-22T17:46:49.543Z,101431.00
2018-08-22T17:49:19.055Z,101430.00
2018-08-22T17:51:58.686Z,101432.00
2018-08-22T17:54:28.235Z,101434.00
2018-08-22T17:57:17.099Z,101431.00
2018-08-22T17:59:46.465Z,101434.00
2018-08-22T18:02:15.849Z,101431.00
2018-08-22T18:04:54.049Z,101434.00
2018-08-22T18:07:23.397Z,101434.00
2018-08-22T18:12:53.240Z,101421.00
2018-08-22T18:15:22.586Z,101425.00
2018-08-22T18:17:52.021Z,101430.00
2018-08-22T18:20:21.350Z,101433.00
2018-08-22T18:22:50.736Z,101428.00
2018-08-22T18:25:20.079Z,101429.00
2018-08-22T18:27:52.394Z,101425.00
2018-08-22T18:30:21.796Z,101431.00
2018-08-22T18:32:51.259Z,101431.00
2018-08-22T18:35:20.807Z,101434.00
2018-08-22T18:37:50.180Z,101439.00
2018-08-22T18:40:24.640Z,101438.00
2018-08-22T18:42:58.686Z,101441.00
2018-08-22T18:45:28.564Z,101440.00
2018-08-22T18:47:58.278Z,101445.00
2018-08-22T18:50:27.597Z,101445.00
2018-08-22T18:52:58.314Z,101444.00
2018-08-22T18:55:28.918Z,101448.00
2018-08-22T18:57:59.679Z,101451.00
2018-08-22T19:00:29.064Z,101456.00
2018-08-22T19:02:59.173Z,101456.00
2018-08-22T19:05:34.071Z,101452.00
2018-08-22T19:08:13.050Z,101456.00
2018-08-22T19:10:43.647Z,101458.00
2018-08-22T19:13:17.135Z,101457.00
2018-08-22T19:15:50.367Z,101458.00
2018-08-22T19:18:19.776Z,101460.00
2018-08-22T19:20:49.454Z,101463.00
2018-08-22T19:23:18.797Z,101464.00
2018-08-22T19:25:49.436Z,101465.00
2018-08-22T19:28:19.068Z,101467.00
2018-08-22T19:30:48.977Z,101462.00
2018-08-22T19:33:19.706Z,101458.00
2018-08-22T19:35:49.234Z,101456.00
2018-08-22T19:38:20.942Z,101459.00
2018-08-22T19:40:50.401Z,101462.00
2018-08-22T19:43:19.809Z,101462.00
2018-08-22T19:45:49.155Z,101467.00
2018-08-22T19:48:18.490Z,101474.00
2018-08-22T19:50:47.818Z,101474.00
2018-08-22T19:53:17.160Z,101475.00
2018-08-22T19:55:46.492Z,101478.00
2018-08-22T19:58:20.837Z,101494.00
2018-08-22T20:00:50.303Z,101492.00
2018-08-22T20:03:24.301Z,101491.00
2018-08-22T20:05:55.211Z,101496.00
2018-08-22T20:08:38.760Z,101494.00
2018-08-22T20:11:08.450Z,101493.00
2018-08-22T20:13:50.733Z,101493.00
2018-08-22T20:16:21.315Z,101501.00
2018-08-22T20:18:53.195Z,101500.00
2018-08-22T20:21:28.663Z,101500.00
2018-08-22T20:23:58.097Z,101503.00
2018-08-22T20:26:28.003Z,101499.00
2018-08-22T20:28:58.587Z,101507.00
2018-08-22T20:31:27.882Z,101510.00
2018-08-22T20:34:08.920Z,101503.00
2018-08-22T20:36:38.374Z,101508.00
2018-08-22T20:39:10.517Z,101504.00
2018-08-22T20:41:40.423Z,101498.00
2018-08-22T20:44:12.999Z,101498.00
2018-08-22T20:46:44.665Z,101500.00
2018-08-22T20:49:14.454Z,101494.00
2018-08-22T20:51:43.793Z,101495.00
2018-08-22T20:54:20.617Z,101496.00
2018-08-22T20:56:55.237Z,101496.00
2018-08-22T20:59:24.609Z,101488.00
2018-08-22T21:01:56.327Z,101484.00
2018-08-22T21:04:25.670Z,101483.00
2018-08-22T21:06:55.207Z,101477.00
2018-08-22T21:09:24.558Z,101476.00
2018-08-22T21:11:56.965Z,101481.00
2018-08-22T21:14:27.936Z,101486.00
2018-08-22T21:16:57.360Z,101486.00
2018-08-22T21:19:26.880Z,101486.00
2018-08-22T21:21:56.286Z,101478.00
2018-08-22T21:24:25.713Z,101481.00
2018-08-22T21:26:55.044Z,101483.00
2018-08-22T21:29:24.389Z,101488.00
2018-08-22T21:31:53.817Z,101486.00
2018-08-22T21:34:24.168Z,101480.00
2018-08-22T21:36:53.524Z,101481.00
2018-08-22T21:39:23.767Z,101485.00
2018-08-22T21:41:53.328Z,101482.00
2018-08-22T21:44:23.350Z,101487.00
2018-08-22T21:46:59.412Z,101491.00
2018-08-22T21:49:29.194Z,101493.00
2018-08-22T21:52:00.172Z,101485.00
2018-08-22T21:54:29.660Z,101487.00
2018-08-22T21:56:59.159Z,101495.00
2018-08-22T21:59:28.595Z,101493.00
2018-08-22T22:02:03.246Z,101492.00
2018-08-22T22:04:36.654Z,101496.00
2018-08-22T22:07:07.576Z,101497.00
2018-08-22T22:09:37.692Z,101500.00
2018-08-22T22:12:18.859Z,101498.00
2018-08-22T22:14:48.195Z,101505.00
2018-08-22T22:17:17.504Z,101501.00
2018-08-22T22:19:46.949Z,101505.00
2018-08-22T22:22:16.326Z,101501.00
2018-08-22T22:24:55.997Z,101502.00
2018-08-22T22:27:25.505Z,101507.00
2018-08-22T22:30:04.805Z,101501.00
2018-08-22T22:32:34.805Z,101494.00
2018-08-22T22:35:04.474Z,101497.00
2018-08-22T22:37:33.782Z,101497.00
2018-08-22T22:40:03.140Z,101497.00
2018-08-22T22:42:32.631Z,101497.00
2018-08-22T22:45:02.332Z,101501.00
2018-08-22T22:47:33.690Z,101497.00
2018-08-22T22:50:03.898Z,101493.00
2018-08-22T22:52:38.673Z,101495.00
2018-08-22T22:55:09.213Z,101499.00
2018-08-22T22:57:39.820Z,101496.00
2018-08-22T23:00:15.306Z,101491.00
2018-08-22T23:02:45.436Z,101496.00
2018-08-22T23:05:14.759Z,101493.00
2018-08-22T23:07:44.088Z,101486.00
2018-08-22T23:10:14.499Z,101489.00
2018-08-22T23:12:44.879Z,101489.00
2018-08-22T23:15:18.838Z,101488.00
2018-08-22T23:17:49.894Z,101487.00
2018-08-22T23:20:32.357Z,101488.00
2018-08-22T23:23:02.893Z,101485.00
2018-08-22T23:25:32.428Z,101482.00
2018-08-22T23:28:02.575Z,101478.00
2018-08-22T23:30:37.212Z,101487.00
2018-08-22T23:33:07.388Z,101489.00
2018-08-22T23:35:37.058Z,101483.00
2018-08-22T23:38:10.588Z,101483.00
2018-08-22T23:40:39.935Z,101480.00
2018-08-22T23:43:09.266Z,101482.00
2018-08-22T23:45:38.628Z,101483.00
2018-08-22T23:48:07.956Z,101484.00
2018-08-22T23:50:47.398Z,101483.00
2018-08-22T23:53:16.744Z,101481.00
2018-08-22T23:56:11.876Z,101480.00
2018-08-22T23:58:42.558Z,101474.00
